Photometre #440[NE_1.6_Dp] Antikythera_NOA AOT

File : 20190924_440.hum

24/09/2019,05:00:26,TEMP=22.9,BA=5.60,STAT.A=13.0,ExtBa=13.00
24/09/2019,05:03:36,TEMP=23.1,BA=5.60,STAT.A=13.0,ExtBa=12.90
24/09/2019,05:07:18,TEMP=23.2,BA=5.60,STAT.A=13.0,ExtBa=13.00
24/09/2019,05:11:41,TEMP=23.3,BA=5.60,STAT.A=13.0,ExtBa=13.10
24/09/2019,05:16:59,TEMP=23.4,BA=5.60,STAT.A=13.0,ExtBa=13.30
24/09/2019,05:23:30,TEMP=23.5,BA=5.64,STAT.A=13.0,ExtBa=13.40
24/09/2019,05:31:42,TEMP=23.7,BA=5.64,STAT.B=13.0,ExtBa=13.50
24/09/2019,05:41:33,TEMP=24.6,BA=5.44,STAT.A=12.0,ExtBa=13.00
24/09/2019,05:43:28,TEMP=24.6,BA=5.44,STAT.A=13.0,ExtBa=13.20
24/09/2019,05:45:23,TEMP=24.7,BA=5.44,STAT.A=13.0,ExtBa=13.10
24/09/2019,05:50:34,TEMP=24.3,BA=5.64,STAT.A=13.0,ExtBa=13.50
24/09/2019,05:56:59,TEMP=24.4,BA=5.64,STAT.C=13.0,ExtBa=13.60
24/09/2019,06:13:23,TEMP=25.3,BA=5.44,STAT.A=13.0,ExtBa=13.00
24/09/2019,06:15:19,TEMP=25.3,BA=5.44,STAT.A=13.0,ExtBa=13.10
24/09/2019,06:23:38,TEMP=24.8,BA=5.64,STAT.A=13.0,ExtBa=13.60
24/09/2019,06:36:21,TEMP=25.0,BA=5.64,STAT.A=13.0,ExtBa=13.60
24/09/2019,06:52:17,TEMP=25.5,BA=5.64,STAT.B=13.0,ExtBa=13.60
24/09/2019,07:04:30,TEMP=25.9,BA=5.48,STAT.D=13.0,ExtBa=13.60
24/09/2019,07:19:32,TEMP=26.6,BA=5.64,STAT.F,ExtBa=13.70
24/09/2019,07:35:21,TEMP=27.3,BA=5.48,STAT.D=13.0,ExtBa=13.30
24/09/2019,07:49:31,TEMP=26.6,BA=5.64,STAT.D=13.0,ExtBa=13.70
24/09/2019,08:04:31,TEMP=26.5,BA=5.64,STAT.D=13.0,ExtBa=13.70
24/09/2019,08:19:32,TEMP=26.8,BA=5.64,STAT.F,ExtBa=13.70
24/09/2019,08:39:54,TEMP=26.4,BA=5.44,STAT.D=13.0,ExtBa=13.50
24/09/2019,08:49:31,TEMP=26.5,BA=5.44,STAT.D=13.0,ExtBa=13.60
24/09/2019,09:04:31,TEMP=26.7,BA=5.64,STAT.D=13.0,ExtBa=13.70
24/09/2019,09:19:33,TEMP=26.0,BA=5.64,STAT.F,ExtBa=13.40
24/09/2019,09:34:31,TEMP=25.7,BA=5.64,STAT.D=13.0,ExtBa=13.40
24/09/2019,09:49:31,TEMP=25.5,BA=5.60,STAT.D=13.0,ExtBa=13.40
24/09/2019,10:04:31,TEMP=25.5,BA=5.64,STAT.D=13.0,ExtBa=13.40
24/09/2019,10:19:33,TEMP=25.4,BA=5.64,STAT.F,ExtBa=13.30
24/09/2019,10:34:31,TEMP=25.3,BA=5.64,STAT.D=13.0,ExtBa=13.30
24/09/2019,10:49:31,TEMP=25.3,BA=5.64,STAT.D=13.0,ExtBa=13.30
24/09/2019,11:04:31,TEMP=25.5,BA=5.64,STAT.D=13.0,ExtBa=13.30
24/09/2019,11:19:33,TEMP=25.6,BA=5.64,STAT.F,ExtBa=13.30
24/09/2019,11:34:31,TEMP=25.5,BA=5.64,STAT.D=13.0,ExtBa=13.30
24/09/2019,11:49:31,TEMP=25.5,BA=5.64,STAT.D=13.0,ExtBa=13.20
24/09/2019,12:04:31,TEMP=25.3,BA=5.64,STAT.D=13.0,ExtBa=13.20
24/09/2019,12:19:32,TEMP=25.2,BA=5.56,STAT.F,ExtBa=13.10
24/09/2019,12:34:31,TEMP=25.0,BA=5.56,STAT.D=13.0,ExtBa=13.10
24/09/2019,12:49:31,TEMP=24.8,BA=5.44,STAT.D=13.0,ExtBa=13.10
24/09/2019,13:04:30,TEMP=24.6,BA=5.48,STAT.D=13.0,ExtBa=13.10
24/09/2019,13:19:32,TEMP=24.7,BA=5.52,STAT.F,ExtBa=13.10
24/09/2019,13:34:30,TEMP=24.6,BA=5.44,STAT.D=13.0,ExtBa=13.10
24/09/2019,13:46:47,TEMP=24.6,BA=5.48,STAT.B=13.0,ExtBa=13.10
24/09/2019,14:02:42,TEMP=24.5,BA=5.40,STAT.A=13.0,ExtBa=13.10
24/09/2019,14:15:26,TEMP=24.4,BA=5.44,STAT.A=13.0,ExtBa=13.10
24/09/2019,14:25:52,TEMP=24.5,BA=5.52,STAT.A=13.0,ExtBa=13.10
24/09/2019,14:34:36,TEMP=24.5,BA=5.40,STAT.A=13.0,ExtBa=13.10
24/09/2019,14:42:03,TEMP=24.5,BA=5.40,STAT.C=13.0,ExtBa=13.10
24/09/2019,14:48:28,TEMP=24.4,BA=5.40,STAT.A=13.0,ExtBa=13.00
24/09/2019,14:54:04,TEMP=24.4,BA=5.36,STAT.A=13.0,ExtBa=13.00
24/09/2019,14:59:01,TEMP=24.4,BA=5.36,STAT.A=13.0,ExtBa=13.00
24/09/2019,15:03:24,TEMP=24.4,BA=5.36,STAT.A=13.0,ExtBa=13.00
24/09/2019,15:07:20,TEMP=24.4,BA=5.36,STAT.B=13.0,ExtBa=13.00
24/09/2019,15:15:32,TEMP=24.2,BA=5.36,STAT.A=13.0,ExtBa=13.00
24/09/2019,15:22:03,TEMP=24.2,BA=5.36,STAT.A=13.0,ExtBa=13.00
24/09/2019,15:27:21,TEMP=24.3,BA=5.36,STAT.A=13.0,ExtBa=13.00
24/09/2019,15:31:44,TEMP=24.3,BA=5.36,STAT.A=13.0,ExtBa=13.00
24/09/2019,15:35:26,TEMP=24.3,BA=5.36,STAT.A=13.0,ExtBa=13.00
24/09/2019,15:38:36,TEMP=24.4,BA=5.36,STAT.A=13.0,ExtBa=13.00